sensor_id;sensor_type;location;lat;lon;timestamp;pressure;altitude;pressure_sealevel;temperature;humidity
8061;BME280;4073;42.626;25.386;2023-02-10T00:00:19;99216.44;;;-5.72;78.99
8061;BME280;4073;42.626;25.386;2023-02-10T00:02:45;99211.47;;;-5.75;78.62
8061;BME280;4073;42.626;25.386;2023-02-10T00:05:10;99207.34;;;-5.77;79.09
8061;BME280;4073;42.626;25.386;2023-02-10T00:07:36;99197.59;;;-5.75;78.86
8061;BME280;4073;42.626;25.386;2023-02-10T00:10:01;99211.59;;;-5.76;78.75
8061;BME280;4073;42.626;25.386;2023-02-10T00:12:27;99199.63;;;-5.79;79.48
8061;BME280;4073;42.626;25.386;2023-02-10T00:14:52;99206.63;;;-5.79;79.76
8061;BME280;4073;42.626;25.386;2023-02-10T00:17:17;99203.16;;;-5.80;79.58
8061;BME280;4073;42.626;25.386;2023-02-10T00:19:44;99205.25;;;-5.83;79.92
8061;BME280;4073;42.626;25.386;2023-02-10T00:22:09;99195.66;;;-5.83;79.99
8061;BME280;4073;42.626;25.386;2023-02-10T00:24:35;99197.41;;;-5.83;80.21
8061;BME280;4073;42.626;25.386;2023-02-10T00:27:01;99191.28;;;-5.93;80.25
8061;BME280;4073;42.626;25.386;2023-02-10T00:29:27;99203.00;;;-5.88;80.48
8061;BME280;4073;42.626;25.386;2023-02-10T00:31:52;99204.06;;;-5.90;80.12
8061;BME280;4073;42.626;25.386;2023-02-10T00:34:18;99198.47;;;-5.97;80.26
8061;BME280;4073;42.626;25.386;2023-02-10T00:36:44;99194.47;;;-6.01;80.22
8061;BME280;4073;42.626;25.386;2023-02-10T00:39:13;99194.25;;;-6.09;80.80
8061;BME280;4073;42.626;25.386;2023-02-10T00:41:39;99186.91;;;-6.15;81.38
8061;BME280;4073;42.626;25.386;2023-02-10T00:44:05;99190.56;;;-6.17;81.20
8061;BME280;4073;42.626;25.386;2023-02-10T00:46:31;99188.78;;;-6.17;81.78
8061;BME280;4073;42.626;25.386;2023-02-10T00:48:56;99190.69;;;-6.19;82.07
8061;BME280;4073;42.626;25.386;2023-02-10T00:51:22;99189.50;;;-6.15;82.03
8061;BME280;4073;42.626;25.386;2023-02-10T00:53:48;99194.72;;;-6.15;81.61
8061;BME280;4073;42.626;25.386;2023-02-10T00:56:15;99183.56;;;-6.17;81.79
8061;BME280;4073;42.626;25.386;2023-02-10T00:58:41;99186.19;;;-6.17;82.08
8061;BME280;4073;42.626;25.386;2023-02-10T01:01:06;99186.06;;;-6.26;81.87
8061;BME280;4073;42.626;25.386;2023-02-10T01:03:33;99162.66;;;-6.37;82.54
8061;BME280;4073;42.626;25.386;2023-02-10T01:05:58;99176.25;;;-6.34;82.74
8061;BME280;4073;42.626;25.386;2023-02-10T01:08:24;99166.78;;;-6.35;81.81
8061;BME280;4073;42.626;25.386;2023-02-10T01:10:49;99159.22;;;-6.38;82.21
8061;BME280;4073;42.626;25.386;2023-02-10T01:13:22;99168.09;;;-6.40;82.13
8061;BME280;4073;42.626;25.386;2023-02-10T01:15:47;99164.53;;;-6.50;82.79
8061;BME280;4073;42.626;25.386;2023-02-10T01:18:13;99170.47;;;-6.48;83.69
8061;BME280;4073;42.626;25.386;2023-02-10T01:20:42;99170.56;;;-6.50;83.49
8061;BME280;4073;42.626;25.386;2023-02-10T01:23:08;99156.38;;;-6.57;82.94
8061;BME280;4073;42.626;25.386;2023-02-10T01:25:35;99166.41;;;-6.63;82.55
8061;BME280;4073;42.626;25.386;2023-02-10T01:28:01;99163.34;;;-6.68;82.65
8061;BME280;4073;42.626;25.386;2023-02-10T01:30:27;99169.72;;;-6.72;83.09
8061;BME280;4073;42.626;25.386;2023-02-10T01:32:53;99173.63;;;-6.67;83.28
8061;BME280;4073;42.626;25.386;2023-02-10T01:35:19;99168.91;;;-6.62;83.22
8061;BME280;4073;42.626;25.386;2023-02-10T01:37:44;99167.94;;;-6.61;83.34
8061;BME280;4073;42.626;25.386;2023-02-10T01:40:10;99170.19;;;-6.56;83.46
8061;BME280;4073;42.626;25.386;2023-02-10T01:42:35;99161.34;;;-6.54;82.83
8061;BME280;4073;42.626;25.386;2023-02-10T01:45:25;99157.91;;;-6.54;82.56
8061;BME280;4073;42.626;25.386;2023-02-10T01:47:52;99166.66;;;-6.55;82.73
8061;BME280;4073;42.626;25.386;2023-02-10T01:50:23;99166.66;;;-6.55;82.52
8061;BME280;4073;42.626;25.386;2023-02-10T01:52:49;99154.69;;;-6.58;82.82
8061;BME280;4073;42.626;25.386;2023-02-10T01:55:19;99139.44;;;-6.73;82.51
8061;BME280;4073;42.626;25.386;2023-02-10T01:57:46;99152.22;;;-6.70;82.73
8061;BME280;4073;42.626;25.386;2023-02-10T02:00:14;99158.72;;;-6.65;81.98
8061;BME280;4073;42.626;25.386;2023-02-10T02:02:42;99157.06;;;-6.66;82.31
8061;BME280;4073;42.626;25.386;2023-02-10T02:05:30;99157.19;;;-6.67;82.93
8061;BME280;4073;42.626;25.386;2023-02-10T02:08:15;99150.34;;;-6.68;83.08
8061;BME280;4073;42.626;25.386;2023-02-10T02:13:56;99143.00;;;-6.74;83.35
8061;BME280;4073;42.626;25.386;2023-02-10T02:32:47;99143.09;;;-6.87;82.66
8061;BME280;4073;42.626;25.386;2023-02-10T02:35:26;99120.47;;;-6.97;83.01
8061;BME280;4073;42.626;25.386;2023-02-10T02:37:53;99128.06;;;-6.94;82.77
8061;BME280;4073;42.626;25.386;2023-02-10T02:40:19;99128.16;;;-6.96;83.24
8061;BME280;4073;42.626;25.386;2023-02-10T02:42:45;99099.03;;;-7.23;83.80
8061;BME280;4073;42.626;25.386;2023-02-10T02:45:14;99128.16;;;-7.07;84.04
8061;BME280;4073;42.626;25.386;2023-02-10T02:50:45;99119.50;;;-7.18;83.70
8061;BME280;4073;42.626;25.386;2023-02-10T03:01:16;99119.19;;;-7.37;84.34
8061;BME280;4073;42.626;25.386;2023-02-10T03:03:43;99115.78;;;-7.38;84.37
8061;BME280;4073;42.626;25.386;2023-02-10T03:06:08;99118.16;;;-7.35;84.25
8061;BME280;4073;42.626;25.386;2023-02-10T03:08:36;99120.88;;;-7.36;84.05
8061;BME280;4073;42.626;25.386;2023-02-10T03:11:03;99119.59;;;-7.31;83.71
8061;BME280;4073;42.626;25.386;2023-02-10T03:13:29;99115.22;;;-7.30;83.82
8061;BME280;4073;42.626;25.386;2023-02-10T03:15:54;99108.25;;;-7.30;83.32
8061;BME280;4073;42.626;25.386;2023-02-10T03:18:19;99108.13;;;-7.28;83.42
8061;BME280;4073;42.626;25.386;2023-02-10T03:20:45;99105.75;;;-7.31;83.30
8061;BME280;4073;42.626;25.386;2023-02-10T03:23:11;99109.53;;;-7.35;83.20
8061;BME280;4073;42.626;25.386;2023-02-10T03:25:36;99101.94;;;-7.38;82.96
8061;BME280;4073;42.626;25.386;2023-02-10T03:28:02;99103.00;;;-7.41;83.45
8061;BME280;4073;42.626;25.386;2023-02-10T03:30:30;99094.03;;;-7.37;83.82
8061;BME280;4073;42.626;25.386;2023-02-10T03:32:56;99095.09;;;-7.39;83.53
8061;BME280;4073;42.626;25.386;2023-02-10T03:35:21;99097.72;;;-7.39;83.90
8061;BME280;4073;42.626;25.386;2023-02-10T03:37:47;99099.69;;;-7.43;83.74
8061;BME280;4073;42.626;25.386;2023-02-10T03:40:12;99097.09;;;-7.43;83.57
8061;BME280;4073;42.626;25.386;2023-02-10T03:42:37;99091.19;;;-7.45;83.52
8061;BME280;4073;42.626;25.386;2023-02-10T03:45:04;99100.88;;;-7.47;83.69
8061;BME280;4073;42.626;25.386;2023-02-10T03:47:29;99077.34;;;-7.56;83.81
8061;BME280;4073;42.626;25.386;2023-02-10T03:49:55;99086.88;;;-7.57;84.10
8061;BME280;4073;42.626;25.386;2023-02-10T03:52:21;99075.41;;;-7.65;84.80
8061;BME280;4073;42.626;25.386;2023-02-10T03:54:46;99084.91;;;-7.53;85.06
8061;BME280;4073;42.626;25.386;2023-02-10T03:57:11;99085.81;;;-7.54;84.57
8061;BME280;4073;42.626;25.386;2023-02-10T03:59:37;99090.00;;;-7.52;85.02
8061;BME280;4073;42.626;25.386;2023-02-10T04:02:03;99078.66;;;-7.51;84.74
8061;BME280;4073;42.626;25.386;2023-02-10T04:04:28;99085.72;;;-7.87;85.42
8061;BME280;4073;42.626;25.386;2023-02-10T04:06:54;99071.69;;;-7.85;85.76
8061;BME280;4073;42.626;25.386;2023-02-10T04:09:20;99086.59;;;-7.76;86.09
8061;BME280;4073;42.626;25.386;2023-02-10T04:11:45;99090.72;;;-7.73;85.86
8061;BME280;4073;42.626;25.386;2023-02-10T04:14:10;99079.63;;;-7.75;85.93
8061;BME280;4073;42.626;25.386;2023-02-10T04:16:36;99078.34;;;-7.70;85.80
8061;BME280;4073;42.626;25.386;2023-02-10T04:19:02;99080.22;;;-7.72;85.81
8061;BME280;4073;42.626;25.386;2023-02-10T04:21:27;99080.94;;;-7.70;85.86
8061;BME280;4073;42.626;25.386;2023-02-10T04:23:53;99076.91;;;-7.74;85.53
8061;BME280;4073;42.626;25.386;2023-02-10T04:26:18;99079.19;;;-7.69;85.74
8061;BME280;4073;42.626;25.386;2023-02-10T04:28:44;99082.72;;;-7.94;86.15
8061;BME280;4073;42.626;25.386;2023-02-10T04:31:10;99085.13;;;-7.80;86.73
8061;BME280;4073;42.626;25.386;2023-02-10T04:33:36;99076.22;;;-7.76;87.04
8061;BME280;4073;42.626;25.386;2023-02-10T04:36:02;99073.44;;;-7.85;86.72
8061;BME280;4073;42.626;25.386;2023-02-10T04:38:30;99066.75;;;-7.77;86.54
8061;BME280;4073;42.626;25.386;2023-02-10T04:40:56;99080.34;;;-7.73;86.52
8061;BME280;4073;42.626;25.386;2023-02-10T04:43:21;99079.63;;;-7.75;86.16
8061;BME280;4073;42.626;25.386;2023-02-10T04:45:47;99081.00;;;-7.82;85.88
8061;BME280;4073;42.626;25.386;2023-02-10T04:48:13;99084.88;;;-7.88;85.90
8061;BME280;4073;42.626;25.386;2023-02-10T04:50:39;99086.59;;;-7.99;86.40
8061;BME280;4073;42.626;25.386;2023-02-10T04:53:05;99085.38;;;-8.06;86.58
8061;BME280;4073;42.626;25.386;2023-02-10T04:55:32;99092.41;;;-8.08;87.03
8061;BME280;4073;42.626;25.386;2023-02-10T04:57:57;99092.09;;;-8.04;87.27
8061;BME280;4073;42.626;25.386;2023-02-10T05:00:23;99082.34;;;-8.00;87.13
8061;BME280;4073;42.626;25.386;2023-02-10T05:02:48;99095.47;;;-7.91;86.88
8061;BME280;4073;42.626;25.386;2023-02-10T05:05:14;99094.78;;;-7.93;86.28
8061;BME280;4073;42.626;25.386;2023-02-10T05:07:39;99098.91;;;-7.90;86.07
8061;BME280;4073;42.626;25.386;2023-02-10T05:10:05;99104.91;;;-7.90;85.57
8061;BME280;4073;42.626;25.386;2023-02-10T05:12:30;99102.31;;;-7.90;85.02
8061;BME280;4073;42.626;25.386;2023-02-10T05:14:56;99102.22;;;-7.88;85.05
8061;BME280;4073;42.626;25.386;2023-02-10T05:17:21;99106.38;;;-7.86;84.45
8061;BME280;4073;42.626;25.386;2023-02-10T05:19:47;99104.81;;;-7.88;84.53
8061;BME280;4073;42.626;25.386;2023-02-10T05:22:12;99113.44;;;-7.88;84.28
8061;BME280;4073;42.626;25.386;2023-02-10T05:24:38;99116.03;;;-7.88;84.61
8061;BME280;4073;42.626;25.386;2023-02-10T05:27:03;99118.31;;;-7.83;84.57
8061;BME280;4073;42.626;25.386;2023-02-10T05:29:29;99117.31;;;-7.93;84.48
8061;BME280;4073;42.626;25.386;2023-02-10T05:31:54;99119.91;;;-7.93;84.28
8061;BME280;4073;42.626;25.386;2023-02-10T05:34:19;99112.22;;;-7.95;84.57
8061;BME280;4073;42.626;25.386;2023-02-10T05:36:45;99119.34;;;-7.86;84.53
8061;BME280;4073;42.626;25.386;2023-02-10T05:39:11;99117.34;;;-7.82;84.01
8061;BME280;4073;42.626;25.386;2023-02-10T05:41:54;99125.03;;;-7.81;83.80
8061;BME280;4073;42.626;25.386;2023-02-10T05:44:21;99117.69;;;-7.87;83.99
8061;BME280;4073;42.626;25.386;2023-02-10T05:46:46;99116.91;;;-7.76;84.24
8061;BME280;4073;42.626;25.386;2023-02-10T05:49:11;99112.81;;;-7.68;83.86
8061;BME280;4073;42.626;25.386;2023-02-10T05:51:37;99116.19;;;-7.55;83.25
8061;BME280;4073;42.626;25.386;2023-02-10T05:54:02;99123.25;;;-7.33;82.57
8061;BME280;4073;42.626;25.386;2023-02-10T05:56:28;99121.56;;;-6.78;81.21
8061;BME280;4073;42.626;25.386;2023-02-10T05:58:54;99127.44;;;-5.56;76.61
8061;BME280;4073;42.626;25.386;2023-02-10T06:01:20;99114.69;;;-4.56;70.23
8061;BME280;4073;42.626;25.386;2023-02-10T06:03:46;99118.16;;;-3.48;65.97
8061;BME280;4073;42.626;25.386;2023-02-10T06:06:11;99116.72;;;-2.76;61.83
8061;BME280;4073;42.626;25.386;2023-02-10T06:08:36;99118.03;;;-1.89;58.96
8061;BME280;4073;42.626;25.386;2023-02-10T06:11:02;99113.97;;;-1.22;55.59
8061;BME280;4073;42.626;25.386;2023-02-10T06:13:27;99120.28;;;-0.72;53.17
8061;BME280;4073;42.626;25.386;2023-02-10T06:15:53;99124.09;;;0.35;50.03
8061;BME280;4073;42.626;25.386;2023-02-10T06:18:18;99128.50;;;2.02;45.49
8061;BME280;4073;42.626;25.386;2023-02-10T06:20:48;99124.72;;;3.48;40.80
8061;BME280;4073;42.626;25.386;2023-02-10T06:23:14;99126.75;;;2.87;40.86
8061;BME280;4073;42.626;25.386;2023-02-10T06:25:39;99126.13;;;3.59;40.59
8061;BME280;4073;42.626;25.386;2023-02-10T06:28:05;99122.13;;;3.26;39.78
8061;BME280;4073;42.626;25.386;2023-02-10T06:30:30;99114.66;;;3.66;39.52
8061;BME280;4073;42.626;25.386;2023-02-10T06:32:56;99123.72;;;3.35;39.14
8061;BME280;4073;42.626;25.386;2023-02-10T06:35:21;99132.59;;;3.19;39.65
8061;BME280;4073;42.626;25.386;2023-02-10T06:37:47;99128.13;;;4.79;37.44
8061;BME280;4073;42.626;25.386;2023-02-10T06:40:13;99111.44;;;4.43;37.21
8061;BME280;4073;42.626;25.386;2023-02-10T06:42:39;99121.81;;;4.80;36.86
8061;BME280;4073;42.626;25.386;2023-02-10T06:45:04;99123.56;;;4.38;37.46
8061;BME280;4073;42.626;25.386;2023-02-10T06:47:30;99126.56;;;4.35;37.27
8061;BME280;4073;42.626;25.386;2023-02-10T06:49:56;99134.56;;;5.33;35.98
8061;BME280;4073;42.626;25.386;2023-02-10T06:52:21;99137.53;;;5.45;35.14
8061;BME280;4073;42.626;25.386;2023-02-10T06:54:49;99137.81;;;6.05;34.37
8061;BME280;4073;42.626;25.386;2023-02-10T06:57:15;99135.28;;;5.97;33.96
8061;BME280;4073;42.626;25.386;2023-02-10T06:59:40;99128.59;;;5.80;34.61
8061;BME280;4073;42.626;25.386;2023-02-10T07:02:06;99135.19;;;5.84;34.45
8061;BME280;4073;42.626;25.386;2023-02-10T07:04:35;99134.63;;;6.70;34.33
8061;BME280;4073;42.626;25.386;2023-02-10T07:07:00;99135.47;;;6.77;33.67
8061;BME280;4073;42.626;25.386;2023-02-10T07:09:25;99134.97;;;7.27;32.98
8061;BME280;4073;42.626;25.386;2023-02-10T07:11:51;99132.53;;;7.64;32.05
8061;BME280;4073;42.626;25.386;2023-02-10T07:14:16;99135.81;;;7.60;32.06
8061;BME280;4073;42.626;25.386;2023-02-10T07:16:42;99132.25;;;8.05;31.36
8061;BME280;4073;42.626;25.386;2023-02-10T07:19:07;99137.97;;;9.72;29.23
8061;BME280;4073;42.626;25.386;2023-02-10T07:21:33;99138.66;;;9.61;28.68
8061;BME280;4073;42.626;25.386;2023-02-10T07:23:58;99142.41;;;9.29;28.59
8061;BME280;4073;42.626;25.386;2023-02-10T07:26:26;99136.47;;;10.43;27.46
8061;BME280;4073;42.626;25.386;2023-02-10T07:28:51;99132.19;;;11.19;26.39
8061;BME280;4073;42.626;25.386;2023-02-10T07:31:17;99129.19;;;10.98;26.20
8061;BME280;4073;42.626;25.386;2023-02-10T07:33:42;99137.81;;;11.82;25.55
8061;BME280;4073;42.626;25.386;2023-02-10T07:36:08;99129.56;;;12.69;24.46
8061;BME280;4073;42.626;25.386;2023-02-10T07:38:34;99138.59;;;12.51;24.49
8061;BME280;4073;42.626;25.386;2023-02-10T07:41:00;99133.06;;;12.69;23.92
8061;BME280;4073;42.626;25.386;2023-02-10T07:43:25;99131.50;;;13.58;23.15
8061;BME280;4073;42.626;25.386;2023-02-10T07:45:51;99135.59;;;13.93;22.83
8061;BME280;4073;42.626;25.386;2023-02-10T07:48:17;99138.91;;;14.33;22.49
8061;BME280;4073;42.626;25.386;2023-02-10T07:50:43;99133.97;;;14.90;21.80
8061;BME280;4073;42.626;25.386;2023-02-10T07:53:09;99134.47;;;14.44;22.22
8061;BME280;4073;42.626;25.386;2023-02-10T07:55:36;99132.84;;;14.43;21.79
8061;BME280;4073;42.626;25.386;2023-02-10T07:58:03;99130.91;;;14.38;21.55
8061;BME280;4073;42.626;25.386;2023-02-10T08:00:29;99135.59;;;13.77;22.05
8061;BME280;4073;42.626;25.386;2023-02-10T08:02:54;99133.16;;;14.25;21.80
8061;BME280;4073;42.626;25.386;2023-02-10T08:05:20;99127.81;;;14.30;21.45
8061;BME280;4073;42.626;25.386;2023-02-10T08:07:46;99130.34;;;14.20;21.47
8061;BME280;4073;42.626;25.386;2023-02-10T08:10:13;99128.38;;;15.71;20.82
8061;BME280;4073;42.626;25.386;2023-02-10T08:12:39;99132.16;;;14.74;20.80
8061;BME280;4073;42.626;25.386;2023-02-10T08:15:06;99129.47;;;14.74;20.98
8061;BME280;4073;42.626;25.386;2023-02-10T08:17:32;99125.06;;;15.11;20.39
8061;BME280;4073;42.626;25.386;2023-02-10T08:19:58;99125.16;;;15.74;19.87
8061;BME280;4073;42.626;25.386;2023-02-10T08:22:23;99127.03;;;16.10;19.27
8061;BME280;4073;42.626;25.386;2023-02-10T08:24:49;99135.06;;;16.00;19.31
8061;BME280;4073;42.626;25.386;2023-02-10T08:27:14;99120.28;;;16.54;18.92
8061;BME280;4073;42.626;25.386;2023-02-10T08:29:40;99116.22;;;15.69;18.99
8061;BME280;4073;42.626;25.386;2023-02-10T08:32:05;99123.53;;;16.10;18.81
8061;BME280;4073;42.626;25.386;2023-02-10T08:34:31;99119.06;;;15.89;19.02
8061;BME280;4073;42.626;25.386;2023-02-10T08:36:56;99113.66;;;16.77;18.62
8061;BME280;4073;42.626;25.386;2023-02-10T08:39:22;99110.84;;;18.19;17.15
8061;BME280;4073;42.626;25.386;2023-02-10T08:41:47;99112.44;;;19.08;16.72
8061;BME280;4073;42.626;25.386;2023-02-10T08:44:14;99120.09;;;17.87;17.31
8061;BME280;4073;42.626;25.386;2023-02-10T08:46:39;99117.53;;;17.01;17.61
8061;BME280;4073;42.626;25.386;2023-02-10T08:49:05;99116.03;;;18.00;16.98
8061;BME280;4073;42.626;25.386;2023-02-10T08:51:30;99115.84;;;16.90;17.19
8061;BME280;4073;42.626;25.386;2023-02-10T08:54:00;99110.69;;;16.32;17.64
8061;BME280;4073;42.626;25.386;2023-02-10T08:56:26;99110.66;;;16.68;17.57
8061;BME280;4073;42.626;25.386;2023-02-10T08:58:52;99102.53;;;17.65;16.96
8061;BME280;4073;42.626;25.386;2023-02-10T09:01:20;99108.84;;;16.84;17.43
8061;BME280;4073;42.626;25.386;2023-02-10T09:03:46;99105.03;;;16.33;17.70
8061;BME280;4073;42.626;25.386;2023-02-10T09:06:20;99096.81;;;16.50;17.68
8061;BME280;4073;42.626;25.386;2023-02-10T09:08:48;99097.03;;;17.25;16.97
8061;BME280;4073;42.626;25.386;2023-02-10T09:11:15;99103.78;;;18.33;16.19
8061;BME280;4073;42.626;25.386;2023-02-10T09:13:40;99105.75;;;17.87;16.30
8061;BME280;4073;42.626;25.386;2023-02-10T09:16:07;99104.97;;;18.85;15.75
8061;BME280;4073;42.626;25.386;2023-02-10T09:18:32;99099.31;;;19.35;15.60
8061;BME280;4073;42.626;25.386;2023-02-10T09:20:59;99086.44;;;19.51;15.26
8061;BME280;4073;42.626;25.386;2023-02-10T09:23:24;99082.50;;;19.33;15.19
8061;BME280;4073;42.626;25.386;2023-02-10T09:25:57;99083.06;;;18.77;15.48
8061;BME280;4073;42.626;25.386;2023-02-10T09:28:23;99083.97;;;18.57;15.41
8061;BME280;4073;42.626;25.386;2023-02-10T09:30:49;99081.13;;;19.69;14.90
8061;BME280;4073;42.626;25.386;2023-02-10T09:33:15;99082.50;;;18.80;15.00
8061;BME280;4073;42.626;25.386;2023-02-10T09:35:41;99083.28;;;17.76;15.81
8061;BME280;4073;42.626;25.386;2023-02-10T09:38:09;99078.78;;;18.61;15.07
8061;BME280;4073;42.626;25.386;2023-02-10T09:40:53;99070.25;;;18.19;15.44
8061;BME280;4073;42.626;25.386;2023-02-10T09:54:10;99053.00;;;17.54;16.24
8061;BME280;4073;42.626;25.386;2023-02-10T09:56:37;99054.03;;;17.03;16.52
8061;BME280;4073;42.626;25.386;2023-02-10T09:59:06;99024.56;;;16.87;16.64
8061;BME280;4073;42.626;25.386;2023-02-10T10:01:39;99031.59;;;16.26;16.97
8061;BME280;4073;42.626;25.386;2023-02-10T10:04:12;99041.47;;;15.64;17.65
8061;BME280;4073;42.626;25.386;2023-02-10T10:06:40;99034.59;;;15.46;17.61
8061;BME280;4073;42.626;25.386;2023-02-10T10:11:42;99024.53;;;15.69;17.29
8061;BME280;4073;42.626;25.386;2023-02-10T10:14:20;99028.66;;;15.18;17.04
8061;BME280;4073;42.626;25.386;2023-02-10T10:25:43;99015.06;;;12.07;18.27
8061;BME280;4073;42.626;25.386;2023-02-10T10:31:23;99017.50;;;11.16;19.28
8061;BME280;4073;42.626;25.386;2023-02-10T10:33:57;99000.88;;;10.73;19.01
8061;BME280;4073;42.626;25.386;2023-02-10T10:36:37;99003.03;;;10.53;19.72
8061;BME280;4073;42.626;25.386;2023-02-10T10:39:33;99001.84;;;10.49;19.91
8061;BME280;4073;42.626;25.386;2023-02-10T10:41:57;98992.09;;;10.54;19.73
8061;BME280;4073;42.626;25.386;2023-02-10T10:44:26;98991.22;;;10.72;19.71
8061;BME280;4073;42.626;25.386;2023-02-10T10:49:36;98981.09;;;11.38;18.24
8061;BME280;4073;42.626;25.386;2023-02-10T10:52:05;98984.22;;;11.81;17.56
8061;BME280;4073;42.626;25.386;2023-02-10T10:54:44;98977.22;;;12.03;17.77
8061;BME280;4073;42.626;25.386;2023-02-10T10:57:11;98978.53;;;12.29;17.42
8061;BME280;4073;42.626;25.386;2023-02-10T10:59:41;98975.28;;;12.43;17.73
8061;BME280;4073;42.626;25.386;2023-02-10T11:02:17;98972.69;;;12.76;16.96
8061;BME280;4073;42.626;25.386;2023-02-10T11:04:43;98966.19;;;12.72;17.71
8061;BME280;4073;42.626;25.386;2023-02-10T11:07:12;98959.09;;;12.66;17.03
8061;BME280;4073;42.626;25.386;2023-02-10T11:09:51;98953.88;;;12.60;17.30
8061;BME280;4073;42.626;25.386;2023-02-10T11:14:48;98939.19;;;12.34;17.55
8061;BME280;4073;42.626;25.386;2023-02-10T11:17:39;98949.09;;;11.66;17.30
8061;BME280;4073;42.626;25.386;2023-02-10T11:20:27;98944.41;;;11.27;18.19
8061;BME280;4073;42.626;25.386;2023-02-10T11:22:58;98947.31;;;10.91;17.03
8061;BME280;4073;42.626;25.386;2023-02-10T11:27:56;98933.97;;;10.50;16.79
8061;BME280;4073;42.626;25.386;2023-02-10T11:30:34;98927.31;;;10.41;17.51
8061;BME280;4073;42.626;25.386;2023-02-10T11:33:02;98922.63;;;10.36;17.37
8061;BME280;4073;42.626;25.386;2023-02-10T11:35:29;98910.88;;;10.37;17.21
8061;BME280;4073;42.626;25.386;2023-02-10T11:38:07;98918.75;;;10.21;17.19
8061;BME280;4073;42.626;25.386;2023-02-10T11:40:53;98914.47;;;10.20;17.09
8061;BME280;4073;42.626;25.386;2023-02-10T11:43:20;98912.81;;;10.19;17.31
8061;BME280;4073;42.626;25.386;2023-02-10T11:45:54;98905.66;;;10.31;17.97
8061;BME280;4073;42.626;25.386;2023-02-10T11:48:22;98905.31;;;10.39;17.03
8061;BME280;4073;42.626;25.386;2023-02-10T11:51:03;98905.22;;;10.45;17.00
8061;BME280;4073;42.626;25.386;2023-02-10T11:53:36;98890.09;;;10.39;16.69
8061;BME280;4073;42.626;25.386;2023-02-10T12:02:17;98893.16;;;10.13;15.64
8061;BME280;4073;42.626;25.386;2023-02-10T12:05:07;98885.53;;;9.99;15.27
8061;BME280;4073;42.626;25.386;2023-02-10T12:10:37;98887.72;;;9.72;16.90
8061;BME280;4073;42.626;25.386;2023-02-10T12:35:58;98857.53;;;10.01;15.87
8061;BME280;4073;42.626;25.386;2023-02-10T12:52:42;98855.03;;;9.59;16.03
8061;BME280;4073;42.626;25.386;2023-02-10T12:57:58;98847.81;;;9.77;15.26
8061;BME280;4073;42.626;25.386;2023-02-10T13:00:49;98851.88;;;9.80;14.93
8061;BME280;4073;42.626;25.386;2023-02-10T13:03:22;98841.78;;;9.82;15.09
8061;BME280;4073;42.626;25.386;2023-02-10T13:05:56;98840.22;;;9.74;14.76
8061;BME280;4073;42.626;25.386;2023-02-10T13:08:30;98843.06;;;9.61;15.53
8061;BME280;4073;42.626;25.386;2023-02-10T13:11:02;98838.09;;;9.65;15.69
8061;BME280;4073;42.626;25.386;2023-02-10T13:13:32;98828.06;;;9.78;15.49
8061;BME280;4073;42.626;25.386;2023-02-10T13:16:15;98834.91;;;9.74;15.49
8061;BME280;4073;42.626;25.386;2023-02-10T13:21:49;98831.22;;;9.87;15.08
8061;BME280;4073;42.626;25.386;2023-02-10T13:24:30;98823.88;;;9.82;14.94
8061;BME280;4073;42.626;25.386;2023-02-10T13:35:11;98831.69;;;9.36;14.87
8061;BME280;4073;42.626;25.386;2023-02-10T13:37:48;98838.13;;;9.29;15.23
8061;BME280;4073;42.626;25.386;2023-02-10T13:40:24;98834.66;;;9.10;15.41
8061;BME280;4073;42.626;25.386;2023-02-10T13:42:59;98839.59;;;9.07;15.70
8061;BME280;4073;42.626;25.386;2023-02-10T13:45:36;98826.94;;;9.02;15.78
8061;BME280;4073;42.626;25.386;2023-02-10T13:48:04;98822.78;;;9.06;15.56
8061;BME280;4073;42.626;25.386;2023-02-10T13:50:52;98815.38;;;8.90;15.83
8061;BME280;4073;42.626;25.386;2023-02-10T13:53:39;98818.34;;;8.82;16.10
8061;BME280;4073;42.626;25.386;2023-02-10T13:58:49;98820.03;;;8.95;16.18
8061;BME280;4073;42.626;25.386;2023-02-10T14:01:41;98815.75;;;9.12;16.38
8061;BME280;4073;42.626;25.386;2023-02-10T14:06:47;98815.97;;;8.92;16.30
8061;BME280;4073;42.626;25.386;2023-02-10T14:11:54;98803.50;;;8.68;16.91
8061;BME280;4073;42.626;25.386;2023-02-10T14:17:16;98811.22;;;8.76;16.60
8061;BME280;4073;42.626;25.386;2023-02-10T14:19:47;98813.88;;;8.76;17.04
8061;BME280;4073;42.626;25.386;2023-02-10T14:22:39;98814.09;;;8.75;17.41
8061;BME280;4073;42.626;25.386;2023-02-10T14:25:18;98812.69;;;8.72;17.42
8061;BME280;4073;42.626;25.386;2023-02-10T14:27:50;98814.72;;;8.52;16.93
8061;BME280;4073;42.626;25.386;2023-02-10T14:30:21;98821.09;;;8.51;17.36
8061;BME280;4073;42.626;25.386;2023-02-10T14:32:48;98812.63;;;8.54;17.78
8061;BME280;4073;42.626;25.386;2023-02-10T14:35:18;98821.25;;;8.56;17.50
8061;BME280;4073;42.626;25.386;2023-02-10T14:37:56;98815.16;;;8.49;17.63
8061;BME280;4073;42.626;25.386;2023-02-10T14:40:23;98815.22;;;8.43;18.26
8061;BME280;4073;42.626;25.386;2023-02-10T14:42:49;98818.25;;;8.46;18.13
8061;BME280;4073;42.626;25.386;2023-02-10T14:45:19;98803.53;;;8.44;18.10
8061;BME280;4073;42.626;25.386;2023-02-10T14:47:46;98815.81;;;8.45;18.32
8061;BME280;4073;42.626;25.386;2023-02-10T14:50:31;98822.69;;;8.34;17.80
8061;BME280;4073;42.626;25.386;2023-02-10T14:52:58;98821.09;;;8.20;18.11
8061;BME280;4073;42.626;25.386;2023-02-10T14:55:28;98818.16;;;8.03;19.25
8061;BME280;4073;42.626;25.386;2023-02-10T14:58:02;98820.97;;;7.77;20.06
8061;BME280;4073;42.626;25.386;2023-02-10T15:00:29;98822.69;;;7.65;19.86
8061;BME280;4073;42.626;25.386;2023-02-10T15:02:58;98799.63;;;7.53;19.99
8061;BME280;4073;42.626;25.386;2023-02-10T15:05:26;98810.06;;;7.54;19.93
8061;BME280;4073;42.626;25.386;2023-02-10T15:07:55;98816.03;;;7.43;20.54
8061;BME280;4073;42.626;25.386;2023-02-10T15:10:35;98804.63;;;7.30;20.91
8061;BME280;4073;42.626;25.386;2023-02-10T15:13:01;98807.94;;;7.25;20.44
8061;BME280;4073;42.626;25.386;2023-02-10T15:17:58;98798.81;;;7.02;19.72
8061;BME280;4073;42.626;25.386;2023-02-10T15:20:29;98806.41;;;6.92;19.62
8061;BME280;4073;42.626;25.386;2023-02-10T15:27:57;98819.75;;;6.53;20.43
8061;BME280;4073;42.626;25.386;2023-02-10T15:30:25;98807.94;;;6.42;21.09
8061;BME280;4073;42.626;25.386;2023-02-10T15:32:56;98813.44;;;6.34;21.58
8061;BME280;4073;42.626;25.386;2023-02-10T15:35:23;98825.50;;;6.24;21.93
8061;BME280;4073;42.626;25.386;2023-02-10T15:37:53;98830.00;;;6.10;22.15
8061;BME280;4073;42.626;25.386;2023-02-10T15:40:26;98816.09;;;5.95;22.02
8061;BME280;4073;42.626;25.386;2023-02-10T15:43:03;98828.16;;;5.91;22.49